sensor_id;sensor_type;location;lat;lon;timestamp;temperature;humidity
11035;DHT22;5571;48.110;-1.706;2023-07-31T00:00:13;17.50;99.90
11035;DHT22;5571;48.110;-1.706;2023-07-31T00:02:39;17.50;99.90
11035;DHT22;5571;48.110;-1.706;2023-07-31T00:05:05;17.50;99.90
11035;DHT22;5571;48.110;-1.706;2023-07-31T00:07:31;17.60;99.90
11035;DHT22;5571;48.110;-1.706;2023-07-31T00:09:57;17.60;99.90
11035;DHT22;5571;48.110;-1.706;2023-07-31T00:12:23;17.60;99.90
11035;DHT22;5571;48.110;-1.706;2023-07-31T00:14:49;17.60;99.90
11035;DHT22;5571;48.110;-1.706;2023-07-31T00:17:16;17.60;99.90
11035;DHT22;5571;48.110;-1.706;2023-07-31T00:19:42;17.60;99.90
11035;DHT22;5571;48.110;-1.706;2023-07-31T00:22:07;17.60;99.90
11035;DHT22;5571;48.110;-1.706;2023-07-31T00:24:33;17.60;99.90
11035;DHT22;5571;48.110;-1.706;2023-07-31T00:26:58;17.60;99.90
11035;DHT22;5571;48.110;-1.706;2023-07-31T00:29:24;17.60;99.90
11035;DHT22;5571;48.110;-1.706;2023-07-31T00:31:50;17.60;99.90
11035;DHT22;5571;48.110;-1.706;2023-07-31T00:34:15;17.60;99.90
11035;DHT22;5571;48.110;-1.706;2023-07-31T00:36:41;17.60;99.90
11035;DHT22;5571;48.110;-1.706;2023-07-31T00:39:06;17.60;99.90
11035;DHT22;5571;48.110;-1.706;2023-07-31T00:41:32;17.70;99.90
11035;DHT22;5571;48.110;-1.706;2023-07-31T00:43:58;17.70;99.90
11035;DHT22;5571;48.110;-1.706;2023-07-31T00:46:23;17.60;99.90
11035;DHT22;5571;48.110;-1.706;2023-07-31T00:48:49;17.70;99.90
11035;DHT22;5571;48.110;-1.706;2023-07-31T00:51:15;17.70;99.90
11035;DHT22;5571;48.110;-1.706;2023-07-31T00:53:41;17.70;99.90
11035;DHT22;5571;48.110;-1.706;2023-07-31T00:56:08;17.70;99.90
11035;DHT22;5571;48.110;-1.706;2023-07-31T00:58:34;17.70;99.90
11035;DHT22;5571;48.110;-1.706;2023-07-31T01:00:59;17.70;99.90
11035;DHT22;5571;48.110;-1.706;2023-07-31T01:03:25;17.70;99.90
11035;DHT22;5571;48.110;-1.706;2023-07-31T01:12:01;17.70;99.90
11035;DHT22;5571;48.110;-1.706;2023-07-31T01:14:28;17.70;99.90
11035;DHT22;5571;48.110;-1.706;2023-07-31T01:16:54;17.70;99.90
11035;DHT22;5571;48.110;-1.706;2023-07-31T01:19:22;17.70;99.90
11035;DHT22;5571;48.110;-1.706;2023-07-31T01:22:43;17.70;99.90
11035;DHT22;5571;48.110;-1.706;2023-07-31T01:31:16;17.70;99.90
11035;DHT22;5571;48.110;-1.706;2023-07-31T01:33:41;17.70;99.90
11035;DHT22;5571;48.110;-1.706;2023-07-31T01:36:07;17.70;99.90
11035;DHT22;5571;48.110;-1.706;2023-07-31T01:38:33;17.70;99.90
11035;DHT22;5571;48.110;-1.706;2023-07-31T01:40:59;17.70;99.90
11035;DHT22;5571;48.110;-1.706;2023-07-31T01:43:25;17.70;99.90
11035;DHT22;5571;48.110;-1.706;2023-07-31T01:45:50;17.70;99.90
11035;DHT22;5571;48.110;-1.706;2023-07-31T01:48:16;17.70;99.90
11035;DHT22;5571;48.110;-1.706;2023-07-31T01:50:41;17.60;99.90
11035;DHT22;5571;48.110;-1.706;2023-07-31T01:53:07;17.70;99.90
11035;DHT22;5571;48.110;-1.706;2023-07-31T01:55:32;17.60;99.90
11035;DHT22;5571;48.110;-1.706;2023-07-31T01:57:58;17.70;99.90
11035;DHT22;5571;48.110;-1.706;2023-07-31T02:00:24;17.70;99.90
11035;DHT22;5571;48.110;-1.706;2023-07-31T02:02:49;17.70;99.90
11035;DHT22;5571;48.110;-1.706;2023-07-31T02:05:15;17.70;99.90
11035;DHT22;5571;48.110;-1.706;2023-07-31T02:07:40;17.70;99.90
11035;DHT22;5571;48.110;-1.706;2023-07-31T02:10:06;17.60;99.90
11035;DHT22;5571;48.110;-1.706;2023-07-31T02:12:32;17.60;99.90
11035;DHT22;5571;48.110;-1.706;2023-07-31T02:14:59;17.60;99.90
11035;DHT22;5571;48.110;-1.706;2023-07-31T02:17:24;17.70;99.90
11035;DHT22;5571;48.110;-1.706;2023-07-31T02:19:50;17.60;99.90
11035;DHT22;5571;48.110;-1.706;2023-07-31T02:22:15;17.60;99.90
11035;DHT22;5571;48.110;-1.706;2023-07-31T02:24:41;17.60;99.90
11035;DHT22;5571;48.110;-1.706;2023-07-31T02:27:07;17.60;99.90
11035;DHT22;5571;48.110;-1.706;2023-07-31T02:29:32;17.50;99.90
11035;DHT22;5571;48.110;-1.706;2023-07-31T02:31:58;17.60;99.90
11035;DHT22;5571;48.110;-1.706;2023-07-31T02:34:23;17.50;99.90
11035;DHT22;5571;48.110;-1.706;2023-07-31T02:36:49;17.60;99.90
11035;DHT22;5571;48.110;-1.706;2023-07-31T02:39:14;17.60;99.90
11035;DHT22;5571;48.110;-1.706;2023-07-31T02:41:40;17.50;99.90
11035;DHT22;5571;48.110;-1.706;2023-07-31T02:44:06;17.50;99.90
11035;DHT22;5571;48.110;-1.706;2023-07-31T02:46:31;17.60;99.90
11035;DHT22;5571;48.110;-1.706;2023-07-31T02:48:57;17.50;99.90
11035;DHT22;5571;48.110;-1.706;2023-07-31T02:51:22;17.60;99.90
11035;DHT22;5571;48.110;-1.706;2023-07-31T02:53:48;17.60;99.90
11035;DHT22;5571;48.110;-1.706;2023-07-31T02:56:14;17.60;99.90
11035;DHT22;5571;48.110;-1.706;2023-07-31T02:58:40;17.60;99.90
11035;DHT22;5571;48.110;-1.706;2023-07-31T03:01:06;17.50;99.90
11035;DHT22;5571;48.110;-1.706;2023-07-31T03:03:31;17.50;99.90
11035;DHT22;5571;48.110;-1.706;2023-07-31T03:05:57;17.60;99.90
11035;DHT22;5571;48.110;-1.706;2023-07-31T03:08:23;17.60;99.90
11035;DHT22;5571;48.110;-1.706;2023-07-31T03:10:48;17.60;99.90
11035;DHT22;5571;48.110;-1.706;2023-07-31T03:13:14;17.60;99.90
11035;DHT22;5571;48.110;-1.706;2023-07-31T03:15:42;17.60;99.90
11035;DHT22;5571;48.110;-1.706;2023-07-31T03:18:08;17.60;99.90
11035;DHT22;5571;48.110;-1.706;2023-07-31T03:20:34;17.60;99.90
11035;DHT22;5571;48.110;-1.706;2023-07-31T03:22:59;17.60;99.90
11035;DHT22;5571;48.110;-1.706;2023-07-31T03:25:25;17.60;99.90
11035;DHT22;5571;48.110;-1.706;2023-07-31T03:27:50;17.60;99.90
11035;DHT22;5571;48.110;-1.706;2023-07-31T03:30:16;17.60;99.90
11035;DHT22;5571;48.110;-1.706;2023-07-31T03:32:42;17.60;99.90
11035;DHT22;5571;48.110;-1.706;2023-07-31T03:35:07;17.60;99.90
11035;DHT22;5571;48.110;-1.706;2023-07-31T03:37:33;17.60;99.90
11035;DHT22;5571;48.110;-1.706;2023-07-31T03:39:59;17.60;99.90
11035;DHT22;5571;48.110;-1.706;2023-07-31T03:42:24;17.50;99.90
11035;DHT22;5571;48.110;-1.706;2023-07-31T03:44:50;17.50;99.90
11035;DHT22;5571;48.110;-1.706;2023-07-31T03:47:15;17.60;99.90
11035;DHT22;5571;48.110;-1.706;2023-07-31T03:49:41;17.60;99.90
11035;DHT22;5571;48.110;-1.706;2023-07-31T03:52:06;17.60;99.90
11035;DHT22;5571;48.110;-1.706;2023-07-31T03:54:32;17.60;99.90
11035;DHT22;5571;48.110;-1.706;2023-07-31T03:56:58;17.60;99.90
11035;DHT22;5571;48.110;-1.706;2023-07-31T03:59:23;17.60;99.90
11035;DHT22;5571;48.110;-1.706;2023-07-31T04:01:49;17.60;99.90
11035;DHT22;5571;48.110;-1.706;2023-07-31T04:04:15;17.60;99.90
11035;DHT22;5571;48.110;-1.706;2023-07-31T04:06:40;17.60;99.90
11035;DHT22;5571;48.110;-1.706;2023-07-31T04:09:06;17.60;99.90
11035;DHT22;5571;48.110;-1.706;2023-07-31T04:11:32;17.60;99.90
11035;DHT22;5571;48.110;-1.706;2023-07-31T04:13:57;17.60;99.90
11035;DHT22;5571;48.110;-1.706;2023-07-31T04:16:23;17.60;99.90
11035;DHT22;5571;48.110;-1.706;2023-07-31T04:18:48;17.60;99.90
11035;DHT22;5571;48.110;-1.706;2023-07-31T04:21:14;17.60;99.90
11035;DHT22;5571;48.110;-1.706;2023-07-31T04:23:40;17.70;99.90
11035;DHT22;5571;48.110;-1.706;2023-07-31T04:26:05;17.70;99.90
11035;DHT22;5571;48.110;-1.706;2023-07-31T04:28:31;17.60;99.90
11035;DHT22;5571;48.110;-1.706;2023-07-31T04:30:57;17.60;99.90
11035;DHT22;5571;48.110;-1.706;2023-07-31T04:33:22;17.60;99.90
11035;DHT22;5571;48.110;-1.706;2023-07-31T04:35:52;17.60;99.90
11035;DHT22;5571;48.110;-1.706;2023-07-31T04:38:19;17.60;99.90
11035;DHT22;5571;48.110;-1.706;2023-07-31T04:40:45;17.60;99.90
11035;DHT22;5571;48.110;-1.706;2023-07-31T04:43:10;17.70;99.90
11035;DHT22;5571;48.110;-1.706;2023-07-31T04:45:36;17.70;99.90
11035;DHT22;5571;48.110;-1.706;2023-07-31T04:48:02;17.70;99.90
11035;DHT22;5571;48.110;-1.706;2023-07-31T04:50:27;17.70;99.90
11035;DHT22;5571;48.110;-1.706;2023-07-31T04:52:53;17.70;99.90
11035;DHT22;5571;48.110;-1.706;2023-07-31T04:55:18;17.70;99.90
11035;DHT22;5571;48.110;-1.706;2023-07-31T04:57:44;17.70;99.90
11035;DHT22;5571;48.110;-1.706;2023-07-31T05:00:10;17.70;99.90
11035;DHT22;5571;48.110;-1.706;2023-07-31T05:02:36;17.70;99.90
11035;DHT22;5571;48.110;-1.706;2023-07-31T05:05:01;17.80;99.90
11035;DHT22;5571;48.110;-1.706;2023-07-31T05:07:27;17.80;99.90
11035;DHT22;5571;48.110;-1.706;2023-07-31T05:09:52;17.70;99.90
11035;DHT22;5571;48.110;-1.706;2023-07-31T05:12:18;17.80;99.90
11035;DHT22;5571;48.110;-1.706;2023-07-31T05:14:43;17.70;99.90
11035;DHT22;5571;48.110;-1.706;2023-07-31T05:17:09;17.80;99.90
11035;DHT22;5571;48.110;-1.706;2023-07-31T05:19:35;17.80;99.90
11035;DHT22;5571;48.110;-1.706;2023-07-31T05:22:00;17.80;99.90
11035;DHT22;5571;48.110;-1.706;2023-07-31T05:24:26;17.80;99.90
11035;DHT22;5571;48.110;-1.706;2023-07-31T05:26:52;17.80;99.90
11035;DHT22;5571;48.110;-1.706;2023-07-31T05:29:17;17.80;99.90
11035;DHT22;5571;48.110;-1.706;2023-07-31T05:31:43;17.80;99.90
11035;DHT22;5571;48.110;-1.706;2023-07-31T05:34:08;17.90;99.90
11035;DHT22;5571;48.110;-1.706;2023-07-31T05:36:34;17.90;99.90
11035;DHT22;5571;48.110;-1.706;2023-07-31T05:39:00;17.90;99.90
11035;DHT22;5571;48.110;-1.706;2023-07-31T05:41:31;17.90;99.90
11035;DHT22;5571;48.110;-1.706;2023-07-31T05:43:57;18.00;99.90
11035;DHT22;5571;48.110;-1.706;2023-07-31T05:46:22;17.90;99.90
11035;DHT22;5571;48.110;-1.706;2023-07-31T05:48:48;18.00;99.90
11035;DHT22;5571;48.110;-1.706;2023-07-31T05:51:13;18.00;99.90
11035;DHT22;5571;48.110;-1.706;2023-07-31T05:53:39;18.00;99.90
11035;DHT22;5571;48.110;-1.706;2023-07-31T05:56:06;18.10;99.90
11035;DHT22;5571;48.110;-1.706;2023-07-31T05:58:32;18.10;99.90
11035;DHT22;5571;48.110;-1.706;2023-07-31T06:00:57;18.10;99.90
11035;DHT22;5571;48.110;-1.706;2023-07-31T06:03:23;18.10;99.90
11035;DHT22;5571;48.110;-1.706;2023-07-31T06:05:48;18.10;99.90
11035;DHT22;5571;48.110;-1.706;2023-07-31T06:08:14;18.10;99.90
11035;DHT22;5571;48.110;-1.706;2023-07-31T06:10:40;18.20;99.90
11035;DHT22;5571;48.110;-1.706;2023-07-31T06:13:05;18.20;99.90
11035;DHT22;5571;48.110;-1.706;2023-07-31T06:15:31;18.30;99.90
11035;DHT22;5571;48.110;-1.706;2023-07-31T06:17:56;18.30;99.90
11035;DHT22;5571;48.110;-1.706;2023-07-31T06:20:23;18.20;99.90
11035;DHT22;5571;48.110;-1.706;2023-07-31T06:22:48;18.30;99.90
11035;DHT22;5571;48.110;-1.706;2023-07-31T06:25:14;18.30;99.90
11035;DHT22;5571;48.110;-1.706;2023-07-31T06:27:39;18.30;99.90
11035;DHT22;5571;48.110;-1.706;2023-07-31T06:30:06;18.40;99.90
11035;DHT22;5571;48.110;-1.706;2023-07-31T06:32:32;18.40;99.90
11035;DHT22;5571;48.110;-1.706;2023-07-31T06:34:57;18.50;99.90
11035;DHT22;5571;48.110;-1.706;2023-07-31T06:37:23;18.50;99.90
11035;DHT22;5571;48.110;-1.706;2023-07-31T06:39:49;18.50;99.90
11035;DHT22;5571;48.110;-1.706;2023-07-31T06:42:14;18.60;99.90
11035;DHT22;5571;48.110;-1.706;2023-07-31T06:44:40;18.60;99.90
11035;DHT22;5571;48.110;-1.706;2023-07-31T06:47:05;18.60;99.90
11035;DHT22;5571;48.110;-1.706;2023-07-31T06:49:34;18.60;99.90
11035;DHT22;5571;48.110;-1.706;2023-07-31T06:52:00;18.60;99.90
11035;DHT22;5571;48.110;-1.706;2023-07-31T06:54:25;18.50;99.90
11035;DHT22;5571;48.110;-1.706;2023-07-31T06:56:51;18.50;99.90
11035;DHT22;5571;48.110;-1.706;2023-07-31T06:59:16;18.40;99.90
11035;DHT22;5571;48.110;-1.706;2023-07-31T07:01:42;18.40;99.90
11035;DHT22;5571;48.110;-1.706;2023-07-31T07:04:08;18.40;99.90
11035;DHT22;5571;48.110;-1.706;2023-07-31T07:06:33;18.40;99.90
11035;DHT22;5571;48.110;-1.706;2023-07-31T07:08:59;18.40;99.90
11035;DHT22;5571;48.110;-1.706;2023-07-31T07:11:24;18.40;99.90
11035;DHT22;5571;48.110;-1.706;2023-07-31T07:13:51;18.40;99.90
11035;DHT22;5571;48.110;-1.706;2023-07-31T07:16:16;18.40;99.90
11035;DHT22;5571;48.110;-1.706;2023-07-31T07:18:42;18.40;99.90
11035;DHT22;5571;48.110;-1.706;2023-07-31T07:21:08;18.50;99.90
11035;DHT22;5571;48.110;-1.706;2023-07-31T07:23:34;18.50;99.90
11035;DHT22;5571;48.110;-1.706;2023-07-31T07:25:59;18.50;99.90
11035;DHT22;5571;48.110;-1.706;2023-07-31T07:28:25;18.50;99.90
11035;DHT22;5571;48.110;-1.706;2023-07-31T07:30:52;18.50;99.90
11035;DHT22;5571;48.110;-1.706;2023-07-31T07:33:19;18.60;99.90
11035;DHT22;5571;48.110;-1.706;2023-07-31T07:35:44;18.60;99.90
11035;DHT22;5571;48.110;-1.706;2023-07-31T07:38:10;18.50;99.90
11035;DHT22;5571;48.110;-1.706;2023-07-31T07:40:39;18.60;99.90
11035;DHT22;5571;48.110;-1.706;2023-07-31T07:43:05;18.50;99.90
11035;DHT22;5571;48.110;-1.706;2023-07-31T07:45:30;18.60;99.90
11035;DHT22;5571;48.110;-1.706;2023-07-31T07:47:56;18.60;99.90
11035;DHT22;5571;48.110;-1.706;2023-07-31T07:50:22;18.50;99.90
11035;DHT22;5571;48.110;-1.706;2023-07-31T07:52:47;18.60;99.90
11035;DHT22;5571;48.110;-1.706;2023-07-31T07:55:13;18.60;99.90
11035;DHT22;5571;48.110;-1.706;2023-07-31T07:57:38;18.60;99.90
11035;DHT22;5571;48.110;-1.706;2023-07-31T08:00:05;18.60;99.90
11035;DHT22;5571;48.110;-1.706;2023-07-31T08:02:31;18.60;99.90
11035;DHT22;5571;48.110;-1.706;2023-07-31T08:04:56;18.70;99.90
11035;DHT22;5571;48.110;-1.706;2023-07-31T08:07:22;18.60;99.90
11035;DHT22;5571;48.110;-1.706;2023-07-31T08:09:48;18.70;99.90
11035;DHT22;5571;48.110;-1.706;2023-07-31T08:12:13;18.70;99.90
11035;DHT22;5571;48.110;-1.706;2023-07-31T08:14:39;18.70;99.90
11035;DHT22;5571;48.110;-1.706;2023-07-31T08:17:05;18.70;99.90
11035;DHT22;5571;48.110;-1.706;2023-07-31T08:19:30;18.70;99.90
11035;DHT22;5571;48.110;-1.706;2023-07-31T08:21:56;18.80;99.90
11035;DHT22;5571;48.110;-1.706;2023-07-31T08:24:22;18.80;99.90
11035;DHT22;5571;48.110;-1.706;2023-07-31T08:26:47;18.80;99.90
11035;DHT22;5571;48.110;-1.706;2023-07-31T08:29:13;18.80;99.90
11035;DHT22;5571;48.110;-1.706;2023-07-31T08:31:39;18.80;99.90
11035;DHT22;5571;48.110;-1.706;2023-07-31T08:34:05;18.80;99.90
11035;DHT22;5571;48.110;-1.706;2023-07-31T08:36:30;18.70;99.90
11035;DHT22;5571;48.110;-1.706;2023-07-31T08:38:56;18.70;99.90
11035;DHT22;5571;48.110;-1.706;2023-07-31T08:41:21;18.70;99.90
11035;DHT22;5571;48.110;-1.706;2023-07-31T08:43:49;18.60;99.90
11035;DHT22;5571;48.110;-1.706;2023-07-31T08:46:15;18.60;99.90
11035;DHT22;5571;48.110;-1.706;2023-07-31T08:48:42;18.70;99.90
11035;DHT22;5571;48.110;-1.706;2023-07-31T08:51:08;18.70;99.90
11035;DHT22;5571;48.110;-1.706;2023-07-31T08:53:34;18.60;99.90
11035;DHT22;5571;48.110;-1.706;2023-07-31T08:56:00;18.70;99.90
11035;DHT22;5571;48.110;-1.706;2023-07-31T08:58:28;18.70;99.90
11035;DHT22;5571;48.110;-1.706;2023-07-31T09:00:57;18.70;99.90
11035;DHT22;5571;48.110;-1.706;2023-07-31T09:03:24;18.70;99.90
11035;DHT22;5571;48.110;-1.706;2023-07-31T09:05:51;18.80;99.90
11035;DHT22;5571;48.110;-1.706;2023-07-31T09:08:21;18.80;99.90
11035;DHT22;5571;48.110;-1.706;2023-07-31T09:10:48;18.80;99.90
11035;DHT22;5571;48.110;-1.706;2023-07-31T09:13:15;18.90;99.90
11035;DHT22;5571;48.110;-1.706;2023-07-31T09:15:44;18.90;99.90
11035;DHT22;5571;48.110;-1.706;2023-07-31T09:18:11;18.90;99.90
11035;DHT22;5571;48.110;-1.706;2023-07-31T09:20:37;19.00;99.90
11035;DHT22;5571;48.110;-1.706;2023-07-31T09:23:12;19.00;99.90
11035;DHT22;5571;48.110;-1.706;2023-07-31T09:25:41;19.00;99.90
11035;DHT22;5571;48.110;-1.706;2023-07-31T09:28:09;19.00;99.90
11035;DHT22;5571;48.110;-1.706;2023-07-31T09:30:49;19.00;99.90
11035;DHT22;5571;48.110;-1.706;2023-07-31T09:33:15;19.10;99.90
11035;DHT22;5571;48.110;-1.706;2023-07-31T09:35:41;19.30;99.90
11035;DHT22;5571;48.110;-1.706;2023-07-31T09:38:09;19.30;99.90
11035;DHT22;5571;48.110;-1.706;2023-07-31T09:40:37;19.40;99.90
11035;DHT22;5571;48.110;-1.706;2023-07-31T09:43:04;19.50;99.90
11035;DHT22;5571;48.110;-1.706;2023-07-31T09:45:38;19.60;99.90
11035;DHT22;5571;48.110;-1.706;2023-07-31T09:48:16;19.60;99.90
11035;DHT22;5571;48.110;-1.706;2023-07-31T09:50:44;19.70;99.90
11035;DHT22;5571;48.110;-1.706;2023-07-31T09:53:11;19.80;99.90
11035;DHT22;5571;48.110;-1.706;2023-07-31T09:55:37;19.80;99.90
11035;DHT22;5571;48.110;-1.706;2023-07-31T09:58:05;19.80;99.90
11035;DHT22;5571;48.110;-1.706;2023-07-31T10:00:31;19.80;99.90
11035;DHT22;5571;48.110;-1.706;2023-07-31T10:03:01;19.80;99.90
11035;DHT22;5571;48.110;-1.706;2023-07-31T10:05:40;19.80;99.90
11035;DHT22;5571;48.110;-1.706;2023-07-31T10:08:09;19.80;99.90
11035;DHT22;5571;48.110;-1.706;2023-07-31T10:10:36;19.70;99.90
11035;DHT22;5571;48.110;-1.706;2023-07-31T10:13:04;19.70;99.90
11035;DHT22;5571;48.110;-1.706;2023-07-31T10:15:30;19.60;99.90
11035;DHT22;5571;48.110;-1.706;2023-07-31T10:17:58;19.60;99.90
11035;DHT22;5571;48.110;-1.706;2023-07-31T10:20:24;19.60;99.90
11035;DHT22;5571;48.110;-1.706;2023-07-31T10:22:51;19.50;99.90
11035;DHT22;5571;48.110;-1.706;2023-07-31T10:25:19;19.50;99.90
11035;DHT22;5571;48.110;-1.706;2023-07-31T10:27:47;19.60;99.90
11035;DHT22;5571;48.110;-1.706;2023-07-31T10:30:15;19.50;99.90
11035;DHT22;5571;48.110;-1.706;2023-07-31T10:32:43;19.40;99.90
11035;DHT22;5571;48.110;-1.706;2023-07-31T10:35:10;19.20;99.90
11035;DHT22;5571;48.110;-1.706;2023-07-31T10:37:40;19.30;99.90
11035;DHT22;5571;48.110;-1.706;2023-07-31T10:40:17;19.20;99.90
11035;DHT22;5571;48.110;-1.706;2023-07-31T10:45:13;19.10;99.90
11035;DHT22;5571;48.110;-1.706;2023-07-31T10:47:43;19.20;99.90
11035;DHT22;5571;48.110;-1.706;2023-07-31T10:50:22;19.20;99.90
11035;DHT22;5571;48.110;-1.706;2023-07-31T10:52:54;19.30;99.90
11035;DHT22;5571;48.110;-1.706;2023-07-31T10:55:30;19.40;99.90
11035;DHT22;5571;48.110;-1.706;2023-07-31T10:57:57;19.50;99.90
11035;DHT22;5571;48.110;-1.706;2023-07-31T11:00:28;19.60;99.90
11035;DHT22;5571;48.110;-1.706;2023-07-31T11:03:02;19.60;99.90
11035;DHT22;5571;48.110;-1.706;2023-07-31T11:06:00;19.80;99.90
11035;DHT22;5571;48.110;-1.706;2023-07-31T11:08:28;19.80;99.90
11035;DHT22;5571;48.110;-1.706;2023-07-31T11:11:12;19.80;99.90
11035;DHT22;5571;48.110;-1.706;2023-07-31T11:13:51;19.90;99.90
11035;DHT22;5571;48.110;-1.706;2023-07-31T11:16:26;19.90;99.90
11035;DHT22;5571;48.110;-1.706;2023-07-31T11:18:53;19.90;99.90
11035;DHT22;5571;48.110;-1.706;2023-07-31T11:21:22;19.90;99.90
11035;DHT22;5571;48.110;-1.706;2023-07-31T11:23:50;20.00;99.90
11035;DHT22;5571;48.110;-1.706;2023-07-31T11:26:17;20.00;99.90
11035;DHT22;5571;48.110;-1.706;2023-07-31T11:28:43;20.00;99.90
11035;DHT22;5571;48.110;-1.706;2023-07-31T11:31:09;20.00;99.90
11035;DHT22;5571;48.110;-1.706;2023-07-31T11:33:35;20.00;99.90
11035;DHT22;5571;48.110;-1.706;2023-07-31T11:36:01;20.00;99.90
11035;DHT22;5571;48.110;-1.706;2023-07-31T11:38:32;20.00;99.90
11035;DHT22;5571;48.110;-1.706;2023-07-31T11:41:01;20.00;99.90
11035;DHT22;5571;48.110;-1.706;2023-07-31T11:43:31;20.10;99.90
11035;DHT22;5571;48.110;-1.706;2023-07-31T11:45:58;20.00;99.90
11035;DHT22;5571;48.110;-1.706;2023-07-31T11:48:26;20.00;99.90
11035;DHT22;5571;48.110;-1.706;2023-07-31T11:50:57;20.00;99.90
11035;DHT22;5571;48.110;-1.706;2023-07-31T11:55:59;20.00;99.90
11035;DHT22;5571;48.110;-1.706;2023-07-31T11:58:26;20.10;99.90
11035;DHT22;5571;48.110;-1.706;2023-07-31T12:00:52;20.20;99.90
11035;DHT22;5571;48.110;-1.706;2023-07-31T12:03:18;20.20;99.90
11035;DHT22;5571;48.110;-1.706;2023-07-31T12:05:44;20.20;99.90
11035;DHT22;5571;48.110;-1.706;2023-07-31T12:08:12;20.20;99.90
11035;DHT22;5571;48.110;-1.706;2023-07-31T12:10:38;20.20;99.90
11035;DHT22;5571;48.110;-1.706;2023-07-31T12:13:08;20.30;99.90
11035;DHT22;5571;48.110;-1.706;2023-07-31T12:15:55;20.40;99.90
11035;DHT22;5571;48.110;-1.706;2023-07-31T12:18:24;20.50;99.90
11035;DHT22;5571;48.110;-1.706;2023-07-31T12:20:58;20.50;99.90
11035;DHT22;5571;48.110;-1.706;2023-07-31T12:23:34;20.60;99.90
11035;DHT22;5571;48.110;-1.706;2023-07-31T12:26:14;20.60;99.90
11035;DHT22;5571;48.110;-1.706;2023-07-31T12:31:08;20.50;99.90
11035;DHT22;5571;48.110;-1.706;2023-07-31T12:33:35;20.50;99.90
11035;DHT22;5571;48.110;-1.706;2023-07-31T12:36:13;20.50;99.90
11035;DHT22;5571;48.110;-1.706;2023-07-31T12:38:40;20.50;99.90
11035;DHT22;5571;48.110;-1.706;2023-07-31T12:41:05;20.50;99.90
11035;DHT22;5571;48.110;-1.706;2023-07-31T12:43:38;20.40;99.90
11035;DHT22;5571;48.110;-1.706;2023-07-31T12:46:04;20.40;99.90
11035;DHT22;5571;48.110;-1.706;2023-07-31T12:48:32;20.40;99.90
11035;DHT22;5571;48.110;-1.706;2023-07-31T12:50:57;20.40;99.90
11035;DHT22;5571;48.110;-1.706;2023-07-31T12:53:23;20.30;99.90
11035;DHT22;5571;48.110;-1.706;2023-07-31T12:55:49;20.20;99.90
11035;DHT22;5571;48.110;-1.706;2023-07-31T12:58:15;20.20;99.90
11035;DHT22;5571;48.110;-1.706;2023-07-31T13:00:41;20.20;99.90
11035;DHT22;5571;48.110;-1.706;2023-07-31T13:03:06;20.20;99.90
11035;DHT22;5571;48.110;-1.706;2023-07-31T13:05:32;20.10;99.90
11035;DHT22;5571;48.110;-1.706;2023-07-31T13:07:58;20.00;99.90
11035;DHT22;5571;48.110;-1.706;2023-07-31T13:10:24;20.00;99.90
11035;DHT22;5571;48.110;-1.706;2023-07-31T13:12:52;20.00;99.90
11035;DHT22;5571;48.110;-1.706;2023-07-31T13:15:17;20.00;99.90
11035;DHT22;5571;48.110;-1.706;2023-07-31T13:17:43;20.00;99.90
11035;DHT22;5571;48.110;-1.706;2023-07-31T13:20:09;20.10;99.90
11035;DHT22;5571;48.110;-1.706;2023-07-31T13:22:34;20.10;99.90
11035;DHT22;5571;48.110;-1.706;2023-07-31T13:25:00;20.20;99.90
11035;DHT22;5571;48.110;-1.706;2023-07-31T13:27:26;20.20;99.90
11035;DHT22;5571;48.110;-1.706;2023-07-31T13:29:52;20.10;99.90
11035;DHT22;5571;48.110;-1.706;2023-07-31T13:32:18;20.10;99.90
11035;DHT22;5571;48.110;-1.706;2023-07-31T13:34:45;20.00;99.90
11035;DHT22;5571;48.110;-1.706;2023-07-31T13:37:10;20.00;99.90
11035;DHT22;5571;48.110;-1.706;2023-07-31T13:39:36;20.00;99.90
11035;DHT22;5571;48.110;-1.706;2023-07-31T13:42:03;20.00;99.90
11035;DHT22;5571;48.110;-1.706;2023-07-31T13:44:32;19.90;99.90
11035;DHT22;5571;48.110;-1.706;2023-07-31T13:46:57;19.80;99.90
11035;DHT22;5571;48.110;-1.706;2023-07-31T13:49:23;19.70;99.90
11035;DHT22;5571;48.110;-1.706;2023-07-31T13:51:48;19.60;99.90
11035;DHT22;5571;48.110;-1.706;2023-07-31T13:54:14;19.50;99.90
11035;DHT22;5571;48.110;-1.706;2023-07-31T13:56:41;19.50;99.90
11035;DHT22;5571;48.110;-1.706;2023-07-31T13:59:06;19.40;99.90
11035;DHT22;5571;48.110;-1.706;2023-07-31T14:01:32;19.30;99.90
11035;DHT22;5571;48.110;-1.706;2023-07-31T14:03:58;19.30;99.90
11035;DHT22;5571;48.110;-1.706;2023-07-31T14:06:23;19.30;99.90
11035;DHT22;5571;48.110;-1.706;2023-07-31T14:08:49;19.30;99.90
11035;DHT22;5571;48.110;-1.706;2023-07-31T14:11:15;19.30;99.90
11035;DHT22;5571;48.110;-1.706;2023-07-31T14:13:40;19.20;99.90
11035;DHT22;5571;48.110;-1.706;2023-07-31T14:16:06;19.10;99.90
11035;DHT22;5571;48.110;-1.706;2023-07-31T14:18:32;19.00;99.90
11035;DHT22;5571;48.110;-1.706;2023-07-31T14:20:57;19.00;99.90
11035;DHT22;5571;48.110;-1.706;2023-07-31T14:23:23;18.90;99.90
11035;DHT22;5571;48.110;-1.706;2023-07-31T14:25:48;18.90;99.90
11035;DHT22;5571;48.110;-1.706;2023-07-31T14:28:14;18.90;99.90
11035;DHT22;5571;48.110;-1.706;2023-07-31T14:30:40;18.90;99.90
11035;DHT22;5571;48.110;-1.706;2023-07-31T14:33:05;18.90;99.90
11035;DHT22;5571;48.110;-1.706;2023-07-31T14:35:31;18.90;99.90
11035;DHT22;5571;48.110;-1.706;2023-07-31T14:37:56;18.90;99.90
11035;DHT22;5571;48.110;-1.706;2023-07-31T14:40:22;18.90;99.90
11035;DHT22;5571;48.110;-1.706;2023-07-31T14:42:48;18.80;99.90
11035;DHT22;5571;48.110;-1.706;2023-07-31T14:45:13;18.80;99.90
11035;DHT22;5571;48.110;-1.706;2023-07-31T14:47:39;18.90;99.90
11035;DHT22;5571;48.110;-1.706;2023-07-31T14:50:05;18.90;99.90
11035;DHT22;5571;48.110;-1.706;2023-07-31T14:52:31;18.90;99.90
11035;DHT22;5571;48.110;-1.706;2023-07-31T14:54:57;18.90;99.90
11035;DHT22;5571;48.110;-1.706;2023-07-31T14:57:22;18.90;99.90
11035;DHT22;5571;48.110;-1.706;2023-07-31T14:59:48;18.90;99.90
11035;DHT22;5571;48.110;-1.706;2023-07-31T15:02:14;18.90;99.90
11035;DHT22;5571;48.110;-1.706;2023-07-31T15:04:40;19.00;99.90
11035;DHT22;5571;48.110;-1.706;2023-07-31T15:07:07;19.00;99.90
11035;DHT22;5571;48.110;-1.706;2023-07-31T15:09:32;19.00;99.90
11035;DHT22;5571;48.110;-1.706;2023-07-31T15:11:58;19.10;99.90
11035;DHT22;5571;48.110;-1.706;2023-07-31T15:14:24;19.00;99.90
11035;DHT22;5571;48.110;-1.706;2023-07-31T15:16:51;19.10;99.90
11035;DHT22;5571;48.110;-1.706;2023-07-31T15:19:16;19.10;99.90
11035;DHT22;5571;48.110;-1.706;2023-07-31T15:21:42;19.20;99.90
11035;DHT22;5571;48.110;-1.706;2023-07-31T15:24:08;19.20;99.90
11035;DHT22;5571;48.110;-1.706;2023-07-31T15:26:34;19.20;99.90
11035;DHT22;5571;48.110;-1.706;2023-07-31T15:29:04;19.30;99.90
11035;DHT22;5571;48.110;-1.706;2023-07-31T15:31:34;19.30;99.90
11035;DHT22;5571;48.110;-1.706;2023-07-31T15:34:01;19.30;99.90
11035;DHT22;5571;48.110;-1.706;2023-07-31T15:36:27;19.30;99.90
11035;DHT22;5571;48.110;-1.706;2023-07-31T15:38:52;19.30;99.90
11035;DHT22;5571;48.110;-1.706;2023-07-31T15:41:19;19.30;99.90
11035;DHT22;5571;48.110;-1.706;2023-07-31T15:43:45;19.20;99.90
11035;DHT22;5571;48.110;-1.706;2023-07-31T15:46:11;19.30;99.90